sensor_id;sensor_type;location;lat;lon;timestamp;P1;durP1;ratioP1;P2;durP2;ratioP2
30543;SDS011;43388;46.308;4.600;2023-04-06T00:02:13;7.78;;;6.60;;
30543;SDS011;43388;46.308;4.600;2023-04-06T00:04:39;6.53;;;5.93;;
30543;SDS011;43388;46.308;4.600;2023-04-06T00:07:05;7.00;;;6.40;;
30543;SDS011;43388;46.308;4.600;2023-04-06T00:09:31;7.32;;;6.38;;
30543;SDS011;43388;46.308;4.600;2023-04-06T00:11:57;7.90;;;7.13;;
30543;SDS011;43388;46.308;4.600;2023-04-06T00:14:23;6.35;;;5.85;;
30543;SDS011;43388;46.308;4.600;2023-04-06T00:16:50;6.68;;;6.00;;
30543;SDS011;43388;46.308;4.600;2023-04-06T00:19:16;7.93;;;7.22;;
30543;SDS011;43388;46.308;4.600;2023-04-06T00:21:42;7.05;;;6.35;;
30543;SDS011;43388;46.308;4.600;2023-04-06T00:24:08;7.88;;;7.13;;
30543;SDS011;43388;46.308;4.600;2023-04-06T00:26:34;7.38;;;6.47;;
30543;SDS011;43388;46.308;4.600;2023-04-06T00:29:00;7.85;;;7.10;;
30543;SDS011;43388;46.308;4.600;2023-04-06T00:31:26;7.65;;;6.35;;
30543;SDS011;43388;46.308;4.600;2023-04-06T00:33:52;10.80;;;6.90;;
30543;SDS011;43388;46.308;4.600;2023-04-06T00:36:18;10.50;;;7.20;;
30543;SDS011;43388;46.308;4.600;2023-04-06T00:38:44;7.47;;;6.78;;
30543;SDS011;43388;46.308;4.600;2023-04-06T00:41:10;7.63;;;6.80;;
30543;SDS011;43388;46.308;4.600;2023-04-06T00:43:36;7.75;;;6.55;;
30543;SDS011;43388;46.308;4.600;2023-04-06T00:46:02;8.73;;;7.80;;
30543;SDS011;43388;46.308;4.600;2023-04-06T00:48:28;7.68;;;6.90;;
30543;SDS011;43388;46.308;4.600;2023-04-06T00:50:56;6.82;;;6.22;;
30543;SDS011;43388;46.308;4.600;2023-04-06T00:53:23;7.75;;;6.97;;
30543;SDS011;43388;46.308;4.600;2023-04-06T00:55:49;8.63;;;6.47;;
30543;SDS011;43388;46.308;4.600;2023-04-06T00:58:15;6.93;;;6.30;;
30543;SDS011;43388;46.308;4.600;2023-04-06T01:00:41;7.25;;;6.47;;
30543;SDS011;43388;46.308;4.600;2023-04-06T01:03:07;9.60;;;7.13;;
30543;SDS011;43388;46.308;4.600;2023-04-06T01:05:34;8.98;;;7.45;;
30543;SDS011;43388;46.308;4.600;2023-04-06T01:08:05;8.65;;;6.65;;
30543;SDS011;43388;46.308;4.600;2023-04-06T01:10:31;9.38;;;6.28;;
30543;SDS011;43388;46.308;4.600;2023-04-06T01:12:57;7.78;;;6.97;;
30543;SDS011;43388;46.308;4.600;2023-04-06T01:15:23;9.65;;;7.78;;
30543;SDS011;43388;46.308;4.600;2023-04-06T01:17:49;7.78;;;6.82;;
30543;SDS011;43388;46.308;4.600;2023-04-06T01:20:15;10.02;;;7.45;;
30543;SDS011;43388;46.308;4.600;2023-04-06T01:22:41;8.43;;;7.47;;
30543;SDS011;43388;46.308;4.600;2023-04-06T01:25:07;8.25;;;7.45;;
30543;SDS011;43388;46.308;4.600;2023-04-06T01:27:34;7.47;;;6.78;;
30543;SDS011;43388;46.308;4.600;2023-04-06T01:30:00;10.30;;;7.20;;
30543;SDS011;43388;46.308;4.600;2023-04-06T01:32:26;8.35;;;7.28;;
30543;SDS011;43388;46.308;4.600;2023-04-06T01:34:52;12.63;;;7.90;;
30543;SDS011;43388;46.308;4.600;2023-04-06T01:37:19;9.65;;;7.82;;
30543;SDS011;43388;46.308;4.600;2023-04-06T01:39:45;8.65;;;7.85;;
30543;SDS011;43388;46.308;4.600;2023-04-06T01:42:11;9.40;;;8.18;;
30543;SDS011;43388;46.308;4.600;2023-04-06T01:44:37;10.98;;;8.65;;
30543;SDS011;43388;46.308;4.600;2023-04-06T01:47:03;9.35;;;7.97;;
30543;SDS011;43388;46.308;4.600;2023-04-06T01:49:30;9.70;;;8.15;;
30543;SDS011;43388;46.308;4.600;2023-04-06T01:51:56;8.20;;;7.40;;
30543;SDS011;43388;46.308;4.600;2023-04-06T01:54:22;9.50;;;7.40;;
30543;SDS011;43388;46.308;4.600;2023-04-06T01:56:48;7.47;;;6.80;;
30543;SDS011;43388;46.308;4.600;2023-04-06T01:59:15;8.25;;;7.55;;
30543;SDS011;43388;46.308;4.600;2023-04-06T02:01:41;8.93;;;7.28;;
30543;SDS011;43388;46.308;4.600;2023-04-06T02:04:07;11.05;;;7.80;;
30543;SDS011;43388;46.308;4.600;2023-04-06T02:06:33;10.93;;;8.18;;
30543;SDS011;43388;46.308;4.600;2023-04-06T02:08:59;7.78;;;7.00;;
30543;SDS011;43388;46.308;4.600;2023-04-06T02:11:26;9.55;;;8.13;;
30543;SDS011;43388;46.308;4.600;2023-04-06T02:13:52;8.65;;;7.72;;
30543;SDS011;43388;46.308;4.600;2023-04-06T02:16:18;12.13;;;7.65;;
30543;SDS011;43388;46.308;4.600;2023-04-06T02:18:44;9.93;;;8.93;;
30543;SDS011;43388;46.308;4.600;2023-04-06T02:21:10;10.65;;;8.30;;
30543;SDS011;43388;46.308;4.600;2023-04-06T02:23:36;8.13;;;7.32;;
30543;SDS011;43388;46.308;4.600;2023-04-06T02:26:02;8.95;;;7.43;;
30543;SDS011;43388;46.308;4.600;2023-04-06T02:28:28;12.00;;;8.43;;
30543;SDS011;43388;46.308;4.600;2023-04-06T02:30:54;8.88;;;7.75;;
30543;SDS011;43388;46.308;4.600;2023-04-06T02:33:20;9.93;;;8.05;;
30543;SDS011;43388;46.308;4.600;2023-04-06T02:35:47;8.90;;;8.02;;
30543;SDS011;43388;46.308;4.600;2023-04-06T02:38:13;9.02;;;8.00;;
30543;SDS011;43388;46.308;4.600;2023-04-06T02:40:39;8.52;;;7.68;;
30543;SDS011;43388;46.308;4.600;2023-04-06T02:43:05;9.35;;;8.38;;
30543;SDS011;43388;46.308;4.600;2023-04-06T02:45:31;8.27;;;7.45;;
30543;SDS011;43388;46.308;4.600;2023-04-06T02:47:57;8.35;;;7.55;;
30543;SDS011;43388;46.308;4.600;2023-04-06T02:50:23;9.65;;;8.27;;
30543;SDS011;43388;46.308;4.600;2023-04-06T02:52:49;8.20;;;7.38;;
30543;SDS011;43388;46.308;4.600;2023-04-06T02:55:15;8.82;;;7.75;;
30543;SDS011;43388;46.308;4.600;2023-04-06T02:57:41;9.65;;;7.88;;
30543;SDS011;43388;46.308;4.600;2023-04-06T03:00:08;13.60;;;8.05;;
30543;SDS011;43388;46.308;4.600;2023-04-06T03:02:34;10.75;;;7.78;;
30543;SDS011;43388;46.308;4.600;2023-04-06T03:05:01;9.48;;;7.78;;
30543;SDS011;43388;46.308;4.600;2023-04-06T03:07:28;8.80;;;7.97;;
30543;SDS011;43388;46.308;4.600;2023-04-06T03:09:54;8.68;;;7.78;;
30543;SDS011;43388;46.308;4.600;2023-04-06T03:12:20;9.15;;;7.93;;
30543;SDS011;43388;46.308;4.600;2023-04-06T03:14:46;11.35;;;8.50;;
30543;SDS011;43388;46.308;4.600;2023-04-06T03:17:12;8.90;;;7.93;;
30543;SDS011;43388;46.308;4.600;2023-04-06T03:19:38;9.70;;;7.50;;
30543;SDS011;43388;46.308;4.600;2023-04-06T03:22:04;13.02;;;9.10;;
30543;SDS011;43388;46.308;4.600;2023-04-06T03:24:30;10.07;;;8.52;;
30543;SDS011;43388;46.308;4.600;2023-04-06T03:26:56;8.52;;;7.63;;
30543;SDS011;43388;46.308;4.600;2023-04-06T03:29:22;8.65;;;7.75;;
30543;SDS011;43388;46.308;4.600;2023-04-06T03:31:48;10.75;;;7.78;;
30543;SDS011;43388;46.308;4.600;2023-04-06T03:34:14;8.93;;;7.75;;
30543;SDS011;43388;46.308;4.600;2023-04-06T03:36:40;10.52;;;8.57;;
30543;SDS011;43388;46.308;4.600;2023-04-06T03:39:07;9.57;;;8.68;;
30543;SDS011;43388;46.308;4.600;2023-04-06T03:41:33;10.02;;;7.88;;
30543;SDS011;43388;46.308;4.600;2023-04-06T03:43:59;11.05;;;8.25;;
30543;SDS011;43388;46.308;4.600;2023-04-06T03:46:25;9.88;;;7.75;;
30543;SDS011;43388;46.308;4.600;2023-04-06T03:48:51;10.80;;;8.68;;
30543;SDS011;43388;46.308;4.600;2023-04-06T03:51:17;9.30;;;8.45;;
30543;SDS011;43388;46.308;4.600;2023-04-06T03:53:43;8.93;;;8.02;;
30543;SDS011;43388;46.308;4.600;2023-04-06T03:56:09;9.73;;;8.35;;
30543;SDS011;43388;46.308;4.600;2023-04-06T03:58:35;8.98;;;7.22;;
30543;SDS011;43388;46.308;4.600;2023-04-06T04:01:01;10.40;;;8.23;;
30543;SDS011;43388;46.308;4.600;2023-04-06T04:03:27;9.77;;;7.65;;
30543;SDS011;43388;46.308;4.600;2023-04-06T04:05:53;9.20;;;8.23;;
30543;SDS011;43388;46.308;4.600;2023-04-06T04:08:23;8.65;;;7.78;;
30543;SDS011;43388;46.308;4.600;2023-04-06T04:10:49;9.02;;;7.93;;
30543;SDS011;43388;46.308;4.600;2023-04-06T04:13:15;10.68;;;8.13;;
30543;SDS011;43388;46.308;4.600;2023-04-06T04:15:42;8.68;;;7.78;;
30543;SDS011;43388;46.308;4.600;2023-04-06T04:18:08;10.00;;;7.97;;
30543;SDS011;43388;46.308;4.600;2023-04-06T04:20:34;9.10;;;8.20;;
30543;SDS011;43388;46.308;4.600;2023-04-06T04:23:00;9.73;;;8.68;;
30543;SDS011;43388;46.308;4.600;2023-04-06T04:25:26;8.70;;;7.90;;
30543;SDS011;43388;46.308;4.600;2023-04-06T04:27:52;9.52;;;8.32;;
30543;SDS011;43388;46.308;4.600;2023-04-06T04:30:18;9.20;;;7.35;;
30543;SDS011;43388;46.308;4.600;2023-04-06T04:32:44;10.10;;;8.15;;
30543;SDS011;43388;46.308;4.600;2023-04-06T04:35:10;9.73;;;7.88;;
30543;SDS011;43388;46.308;4.600;2023-04-06T04:37:38;11.15;;;7.85;;
30543;SDS011;43388;46.308;4.600;2023-04-06T04:40:04;10.65;;;7.95;;
30543;SDS011;43388;46.308;4.600;2023-04-06T04:42:30;10.38;;;8.13;;
30543;SDS011;43388;46.308;4.600;2023-04-06T04:44:56;10.35;;;8.10;;
30543;SDS011;43388;46.308;4.600;2023-04-06T04:47:22;11.52;;;8.43;;
30543;SDS011;43388;46.308;4.600;2023-04-06T04:49:48;10.43;;;8.68;;
30543;SDS011;43388;46.308;4.600;2023-04-06T04:52:14;9.30;;;8.32;;
30543;SDS011;43388;46.308;4.600;2023-04-06T04:54:40;10.23;;;8.07;;
30543;SDS011;43388;46.308;4.600;2023-04-06T04:57:07;9.18;;;7.35;;
30543;SDS011;43388;46.308;4.600;2023-04-06T04:59:34;11.10;;;8.68;;
30543;SDS011;43388;46.308;4.600;2023-04-06T05:02:00;9.73;;;8.57;;
30543;SDS011;43388;46.308;4.600;2023-04-06T05:04:26;8.70;;;7.90;;
30543;SDS011;43388;46.308;4.600;2023-04-06T05:07:05;8.15;;;7.35;;
30543;SDS011;43388;46.308;4.600;2023-04-06T05:09:31;9.65;;;7.82;;
30543;SDS011;43388;46.308;4.600;2023-04-06T05:11:58;10.73;;;8.13;;
30543;SDS011;43388;46.308;4.600;2023-04-06T05:14:24;8.70;;;7.90;;
30543;SDS011;43388;46.308;4.600;2023-04-06T05:16:50;9.10;;;8.25;;
30543;SDS011;43388;46.308;4.600;2023-04-06T05:19:16;10.18;;;8.32;;
30543;SDS011;43388;46.308;4.600;2023-04-06T05:21:43;8.95;;;7.88;;
30543;SDS011;43388;46.308;4.600;2023-04-06T05:24:09;8.90;;;7.93;;
30543;SDS011;43388;46.308;4.600;2023-04-06T05:26:35;14.05;;;8.60;;
30543;SDS011;43388;46.308;4.600;2023-04-06T05:29:01;12.65;;;8.30;;
30543;SDS011;43388;46.308;4.600;2023-04-06T05:31:27;13.27;;;8.32;;
30543;SDS011;43388;46.308;4.600;2023-04-06T05:33:54;9.75;;;8.50;;
30543;SDS011;43388;46.308;4.600;2023-04-06T05:36:20;10.35;;;7.68;;
30543;SDS011;43388;46.308;4.600;2023-04-06T05:38:46;9.43;;;7.47;;
30543;SDS011;43388;46.308;4.600;2023-04-06T05:41:13;11.40;;;7.70;;
30543;SDS011;43388;46.308;4.600;2023-04-06T05:43:39;9.07;;;8.18;;
30543;SDS011;43388;46.308;4.600;2023-04-06T05:46:05;9.30;;;8.30;;
30543;SDS011;43388;46.308;4.600;2023-04-06T05:48:31;12.80;;;8.75;;
30543;SDS011;43388;46.308;4.600;2023-04-06T05:50:57;11.70;;;8.38;;
30543;SDS011;43388;46.308;4.600;2023-04-06T05:53:23;8.00;;;7.20;;
30543;SDS011;43388;46.308;4.600;2023-04-06T05:55:51;8.90;;;8.00;;
30543;SDS011;43388;46.308;4.600;2023-04-06T05:58:17;10.07;;;7.43;;
30543;SDS011;43388;46.308;4.600;2023-04-06T06:00:43;10.13;;;7.60;;
30543;SDS011;43388;46.308;4.600;2023-04-06T06:03:10;10.13;;;8.00;;
30543;SDS011;43388;46.308;4.600;2023-04-06T06:05:36;13.35;;;8.45;;
30543;SDS011;43388;46.308;4.600;2023-04-06T06:08:02;9.07;;;7.45;;
30543;SDS011;43388;46.308;4.600;2023-04-06T06:10:28;11.05;;;7.25;;
30543;SDS011;43388;46.308;4.600;2023-04-06T06:12:55;10.50;;;7.45;;
30543;SDS011;43388;46.308;4.600;2023-04-06T06:15:21;8.02;;;7.13;;
30543;SDS011;43388;46.308;4.600;2023-04-06T06:17:47;13.23;;;7.45;;
30543;SDS011;43388;46.308;4.600;2023-04-06T06:20:13;7.68;;;6.85;;
30543;SDS011;43388;46.308;4.600;2023-04-06T06:22:39;8.27;;;7.43;;
30543;SDS011;43388;46.308;4.600;2023-04-06T06:25:05;8.75;;;6.75;;
30543;SDS011;43388;46.308;4.600;2023-04-06T06:27:31;13.68;;;6.43;;
30543;SDS011;43388;46.308;4.600;2023-04-06T06:29:57;9.40;;;7.63;;
30543;SDS011;43388;46.308;4.600;2023-04-06T06:32:23;12.02;;;8.05;;
30543;SDS011;43388;46.308;4.600;2023-04-06T06:34:49;9.48;;;6.70;;
30543;SDS011;43388;46.308;4.600;2023-04-06T06:37:15;7.85;;;7.15;;
30543;SDS011;43388;46.308;4.600;2023-04-06T06:39:41;7.35;;;6.65;;
30543;SDS011;43388;46.308;4.600;2023-04-06T06:42:07;7.43;;;6.68;;
30543;SDS011;43388;46.308;4.600;2023-04-06T06:44:33;9.57;;;8.25;;
30543;SDS011;43388;46.308;4.600;2023-04-06T06:46:59;8.07;;;7.28;;
30543;SDS011;43388;46.308;4.600;2023-04-06T06:49:25;9.30;;;6.70;;
30543;SDS011;43388;46.308;4.600;2023-04-06T06:51:52;8.30;;;7.60;;
30543;SDS011;43388;46.308;4.600;2023-04-06T06:54:18;8.13;;;5.75;;
30543;SDS011;43388;46.308;4.600;2023-04-06T06:56:44;7.78;;;7.03;;
30543;SDS011;43388;46.308;4.600;2023-04-06T06:59:10;7.60;;;6.38;;
30543;SDS011;43388;46.308;4.600;2023-04-06T07:01:36;14.63;;;6.25;;
30543;SDS011;43388;46.308;4.600;2023-04-06T07:04:02;12.07;;;6.93;;
30543;SDS011;43388;46.308;4.600;2023-04-06T07:06:28;36.53;;;8.35;;
30543;SDS011;43388;46.308;4.600;2023-04-06T07:08:54;25.38;;;8.57;;
30543;SDS011;43388;46.308;4.600;2023-04-06T07:11:20;8.95;;;6.70;;
30543;SDS011;43388;46.308;4.600;2023-04-06T07:13:46;7.93;;;7.13;;
30543;SDS011;43388;46.308;4.600;2023-04-06T07:16:12;7.50;;;6.45;;
30543;SDS011;43388;46.308;4.600;2023-04-06T07:18:38;18.38;;;15.82;;
30543;SDS011;43388;46.308;4.600;2023-04-06T07:21:04;18.42;;;16.35;;
30543;SDS011;43388;46.308;4.600;2023-04-06T07:23:30;16.63;;;13.35;;
30543;SDS011;43388;46.308;4.600;2023-04-06T07:25:56;8.95;;;7.57;;
30543;SDS011;43388;46.308;4.600;2023-04-06T07:28:22;10.80;;;8.50;;
30543;SDS011;43388;46.308;4.600;2023-04-06T07:30:48;11.32;;;6.60;;
30543;SDS011;43388;46.308;4.600;2023-04-06T07:33:15;10.23;;;7.88;;
30543;SDS011;43388;46.308;4.600;2023-04-06T07:35:41;8.48;;;7.68;;
30543;SDS011;43388;46.308;4.600;2023-04-06T07:38:07;10.45;;;7.63;;
30543;SDS011;43388;46.308;4.600;2023-04-06T07:40:33;9.98;;;6.72;;
30543;SDS011;43388;46.308;4.600;2023-04-06T07:42:59;11.50;;;7.93;;
30543;SDS011;43388;46.308;4.600;2023-04-06T07:45:26;9.68;;;7.80;;
30543;SDS011;43388;46.308;4.600;2023-04-06T07:47:52;9.38;;;7.18;;
30543;SDS011;43388;46.308;4.600;2023-04-06T07:50:18;7.50;;;6.78;;
30543;SDS011;43388;46.308;4.600;2023-04-06T07:52:45;8.35;;;7.45;;
30543;SDS011;43388;46.308;4.600;2023-04-06T07:55:11;8.40;;;7.32;;
30543;SDS011;43388;46.308;4.600;2023-04-06T07:57:37;9.45;;;7.70;;
30543;SDS011;43388;46.308;4.600;2023-04-06T08:00:03;10.95;;;6.65;;
30543;SDS011;43388;46.308;4.600;2023-04-06T08:02:31;9.18;;;6.85;;
30543;SDS011;43388;46.308;4.600;2023-04-06T08:04:57;8.20;;;7.40;;
30543;SDS011;43388;46.308;4.600;2023-04-06T08:07:23;8.68;;;7.15;;
30543;SDS011;43388;46.308;4.600;2023-04-06T08:09:49;7.93;;;6.85;;
30543;SDS011;43388;46.308;4.600;2023-04-06T08:12:15;7.78;;;6.97;;
30543;SDS011;43388;46.308;4.600;2023-04-06T08:14:41;7.75;;;6.82;;
30543;SDS011;43388;46.308;4.600;2023-04-06T08:17:07;9.52;;;6.75;;
30543;SDS011;43388;46.308;4.600;2023-04-06T08:19:33;8.32;;;6.75;;
30543;SDS011;43388;46.308;4.600;2023-04-06T08:22:00;8.90;;;6.50;;
30543;SDS011;43388;46.308;4.600;2023-04-06T08:24:27;8.02;;;6.40;;
30543;SDS011;43388;46.308;4.600;2023-04-06T08:26:53;9.18;;;6.88;;
30543;SDS011;43388;46.308;4.600;2023-04-06T08:29:19;8.38;;;6.88;;
30543;SDS011;43388;46.308;4.600;2023-04-06T08:31:45;7.25;;;6.55;;
30543;SDS011;43388;46.308;4.600;2023-04-06T08:34:11;7.80;;;6.90;;
30543;SDS011;43388;46.308;4.600;2023-04-06T08:36:37;7.88;;;6.25;;
30543;SDS011;43388;46.308;4.600;2023-04-06T08:39:03;7.28;;;6.57;;
30543;SDS011;43388;46.308;4.600;2023-04-06T08:41:29;6.88;;;5.90;;
30543;SDS011;43388;46.308;4.600;2023-04-06T08:43:57;6.78;;;6.18;;
30543;SDS011;43388;46.308;4.600;2023-04-06T08:46:23;7.00;;;5.50;;
30543;SDS011;43388;46.308;4.600;2023-04-06T08:48:56;7.10;;;6.43;;
30543;SDS011;43388;46.308;4.600;2023-04-06T08:51:23;7.53;;;6.75;;
30543;SDS011;43388;46.308;4.600;2023-04-06T08:53:51;6.57;;;5.82;;
30543;SDS011;43388;46.308;4.600;2023-04-06T08:56:19;11.60;;;7.25;;
30543;SDS011;43388;46.308;4.600;2023-04-06T08:58:45;7.15;;;6.43;;
30543;SDS011;43388;46.308;4.600;2023-04-06T09:01:11;10.10;;;6.35;;
30543;SDS011;43388;46.308;4.600;2023-04-06T09:03:40;7.18;;;6.00;;
30543;SDS011;43388;46.308;4.600;2023-04-06T09:06:06;7.50;;;6.03;;
30543;SDS011;43388;46.308;4.600;2023-04-06T09:08:38;7.13;;;6.03;;
30543;SDS011;43388;46.308;4.600;2023-04-06T09:11:04;8.05;;;6.53;;
30543;SDS011;43388;46.308;4.600;2023-04-06T09:13:31;7.45;;;6.30;;
30543;SDS011;43388;46.308;4.600;2023-04-06T09:16:00;9.52;;;6.70;;
30543;SDS011;43388;46.308;4.600;2023-04-06T09:18:30;9.10;;;6.03;;
30543;SDS011;43388;46.308;4.600;2023-04-06T09:21:00;8.55;;;6.80;;
30543;SDS011;43388;46.308;4.600;2023-04-06T09:23:27;7.45;;;6.15;;
30543;SDS011;43388;46.308;4.600;2023-04-06T09:29:07;7.90;;;5.88;;
30543;SDS011;43388;46.308;4.600;2023-04-06T09:31:29;7.65;;;6.00;;
30543;SDS011;43388;46.308;4.600;2023-04-06T09:33:57;7.55;;;6.05;;
30543;SDS011;43388;46.308;4.600;2023-04-06T09:36:34;9.40;;;6.55;;
30543;SDS011;43388;46.308;4.600;2023-04-06T09:39:03;10.10;;;9.13;;
30543;SDS011;43388;46.308;4.600;2023-04-06T09:41:30;12.75;;;11.63;;
30543;SDS011;43388;46.308;4.600;2023-04-06T09:46:30;7.68;;;6.88;;
30543;SDS011;43388;46.308;4.600;2023-04-06T09:48:56;7.55;;;6.82;;
30543;SDS011;43388;46.308;4.600;2023-04-06T09:51:23;8.65;;;7.03;;
30543;SDS011;43388;46.308;4.600;2023-04-06T09:53:51;8.65;;;6.53;;
30543;SDS011;43388;46.308;4.600;2023-04-06T09:56:19;7.95;;;7.15;;
30543;SDS011;43388;46.308;4.600;2023-04-06T09:58:46;7.75;;;6.90;;
30543;SDS011;43388;46.308;4.600;2023-04-06T10:01:15;9.07;;;6.90;;
30543;SDS011;43388;46.308;4.600;2023-04-06T10:04:00;8.25;;;7.45;;
30543;SDS011;43388;46.308;4.600;2023-04-06T10:06:30;6.70;;;6.10;;
30543;SDS011;43388;46.308;4.600;2023-04-06T10:08:58;8.73;;;6.85;;
30543;SDS011;43388;46.308;4.600;2023-04-06T10:11:25;7.97;;;6.55;;
30543;SDS011;43388;46.308;4.600;2023-04-06T10:13:51;7.90;;;6.32;;
30543;SDS011;43388;46.308;4.600;2023-04-06T10:16:17;7.60;;;6.78;;
30543;SDS011;43388;46.308;4.600;2023-04-06T10:18:44;7.85;;;6.25;;
30543;SDS011;43388;46.308;4.600;2023-04-06T10:21:12;8.38;;;6.13;;
30543;SDS011;43388;46.308;4.600;2023-04-06T10:26:12;7.28;;;6.03;;
30543;SDS011;43388;46.308;4.600;2023-04-06T10:28:40;6.50;;;5.90;;
30543;SDS011;43388;46.308;4.600;2023-04-06T10:31:07;7.55;;;6.63;;
30543;SDS011;43388;46.308;4.600;2023-04-06T10:33:33;7.70;;;5.93;;
30543;SDS011;43388;46.308;4.600;2023-04-06T10:36:21;7.38;;;6.22;;
30543;SDS011;43388;46.308;4.600;2023-04-06T10:38:53;6.53;;;5.93;;
30543;SDS011;43388;46.308;4.600;2023-04-06T10:41:19;10.50;;;6.47;;
30543;SDS011;43388;46.308;4.600;2023-04-06T10:43:45;8.43;;;6.85;;
30543;SDS011;43388;46.308;4.600;2023-04-06T10:46:24;6.80;;;6.20;;
30543;SDS011;43388;46.308;4.600;2023-04-06T10:48:50;7.18;;;6.47;;
30543;SDS011;43388;46.308;4.600;2023-04-06T10:51:17;7.30;;;6.20;;
30543;SDS011;43388;46.308;4.600;2023-04-06T10:53:47;7.68;;;6.93;;
30543;SDS011;43388;46.308;4.600;2023-04-06T10:56:17;6.93;;;6.10;;
30543;SDS011;43388;46.308;4.600;2023-04-06T10:58:46;6.78;;;6.03;;
30543;SDS011;43388;46.308;4.600;2023-04-06T11:01:14;8.30;;;6.93;;
30543;SDS011;43388;46.308;4.600;2023-04-06T11:03:44;6.60;;;5.47;;
30543;SDS011;43388;46.308;4.600;2023-04-06T11:06:10;6.22;;;5.40;;
30543;SDS011;43388;46.308;4.600;2023-04-06T11:08:37;9.07;;;6.85;;
30543;SDS011;43388;46.308;4.600;2023-04-06T11:11:08;8.00;;;6.22;;
30543;SDS011;43388;46.308;4.600;2023-04-06T11:13:41;6.18;;;5.57;;
30543;SDS011;43388;46.308;4.600;2023-04-06T11:16:11;13.57;;;6.10;;
30543;SDS011;43388;46.308;4.600;2023-04-06T11:18:38;8.18;;;6.13;;
30543;SDS011;43388;46.308;4.600;2023-04-06T11:21:04;8.35;;;6.00;;
30543;SDS011;43388;46.308;4.600;2023-04-06T11:23:30;7.22;;;5.47;;
30543;SDS011;43388;46.308;4.600;2023-04-06T11:25:56;6.50;;;5.65;;
30543;SDS011;43388;46.308;4.600;2023-04-06T11:28:22;6.97;;;5.95;;
30543;SDS011;43388;46.308;4.600;2023-04-06T11:30:48;6.13;;;5.22;;
30543;SDS011;43388;46.308;4.600;2023-04-06T11:33:21;8.45;;;5.95;;
30543;SDS011;43388;46.308;4.600;2023-04-06T11:35:47;7.18;;;5.55;;
30543;SDS011;43388;46.308;4.600;2023-04-06T11:38:13;6.65;;;5.18;;
30543;SDS011;43388;46.308;4.600;2023-04-06T11:40:40;5.53;;;4.85;;
30543;SDS011;43388;46.308;4.600;2023-04-06T11:43:06;11.07;;;5.20;;
30543;SDS011;43388;46.308;4.600;2023-04-06T11:45:40;7.13;;;5.43;;
30543;SDS011;43388;46.308;4.600;2023-04-06T11:48:16;5.45;;;4.95;;
30543;SDS011;43388;46.308;4.600;2023-04-06T11:50:43;8.32;;;4.43;;
30543;SDS011;43388;46.308;4.600;2023-04-06T11:53:11;6.05;;;4.78;;
30543;SDS011;43388;46.308;4.600;2023-04-06T11:55:38;5.30;;;4.25;;
30543;SDS011;43388;46.308;4.600;2023-04-06T11:58:05;4.93;;;3.38;;
30543;SDS011;43388;46.308;4.600;2023-04-06T12:00:32;4.38;;;3.72;;
30543;SDS011;43388;46.308;4.600;2023-04-06T12:02:59;3.60;;;3.30;;
30543;SDS011;43388;46.308;4.600;2023-04-06T12:05:25;3.88;;;3.50;;
30543;SDS011;43388;46.308;4.600;2023-04-06T12:07:52;5.30;;;3.25;;
30543;SDS011;43388;46.308;4.600;2023-04-06T12:10:18;3.58;;;2.88;;
30543;SDS011;43388;46.308;4.600;2023-04-06T12:12:44;3.33;;;3.08;;
30543;SDS011;43388;46.308;4.600;2023-04-06T12:15:11;3.38;;;3.08;;
30543;SDS011;43388;46.308;4.600;2023-04-06T12:17:37;3.50;;;3.20;;
30543;SDS011;43388;46.308;4.600;2023-04-06T12:20:03;4.47;;;3.80;;
30543;SDS011;43388;46.308;4.600;2023-04-06T12:22:29;3.58;;;3.28;;
30543;SDS011;43388;46.308;4.600;2023-04-06T12:24:55;4.22;;;3.38;;
30543;SDS011;43388;46.308;4.600;2023-04-06T12:27:21;4.32;;;3.40;;
30543;SDS011;43388;46.308;4.600;2023-04-06T12:29:47;3.72;;;3.20;;
30543;SDS011;43388;46.308;4.600;2023-04-06T12:32:13;3.13;;;2.90;;
30543;SDS011;43388;46.308;4.600;2023-04-06T12:34:39;3.85;;;3.28;;
30543;SDS011;43388;46.308;4.600;2023-04-06T12:37:05;4.10;;;2.70;;
30543;SDS011;43388;46.308;4.600;2023-04-06T12:39:31;3.25;;;2.95;;
30543;SDS011;43388;46.308;4.600;2023-04-06T12:41:57;4.05;;;3.65;;
30543;SDS011;43388;46.308;4.600;2023-04-06T12:44:23;4.13;;;3.42;;
30543;SDS011;43388;46.308;4.600;2023-04-06T12:46:50;4.40;;;3.70;;
30543;SDS011;43388;46.308;4.600;2023-04-06T12:49:17;4.80;;;4.40;;
30543;SDS011;43388;46.308;4.600;2023-04-06T12:51:44;4.63;;;4.10;;
30543;SDS011;43388;46.308;4.600;2023-04-06T12:54:10;4.13;;;3.30;;
30543;SDS011;43388;46.308;4.600;2023-04-06T12:56:36;3.50;;;3.20;;
30543;SDS011;43388;46.308;4.600;2023-04-06T12:59:03;3.22;;;2.92;;
30543;SDS011;43388;46.308;4.600;2023-04-06T13:01:30;4.35;;;3.65;;
30543;SDS011;43388;46.308;4.600;2023-04-06T13:03:56;3.33;;;3.03;;
30543;SDS011;43388;46.308;4.600;2023-04-06T13:06:24;3.17;;;2.88;;
30543;SDS011;43388;46.308;4.600;2023-04-06T13:08:53;3.95;;;3.40;;
30543;SDS011;43388;46.308;4.600;2023-04-06T13:11:19;3.40;;;3.05;;
30543;SDS011;43388;46.308;4.600;2023-04-06T13:13:46;4.13;;;3.35;;
30543;SDS011;43388;46.308;4.600;2023-04-06T13:16:12;3.72;;;3.42;;
30543;SDS011;43388;46.308;4.600;2023-04-06T13:18:38;3.58;;;3.28;;
30543;SDS011;43388;46.308;4.600;2023-04-06T13:21:05;3.67;;;3.10;;
30543;SDS011;43388;46.308;4.600;2023-04-06T13:23:31;5.00;;;3.20;;
30543;SDS011;43388;46.308;4.600;2023-04-06T13:25:58;3.08;;;2.88;;
30543;SDS011;43388;46.308;4.600;2023-04-06T13:28:25;4.93;;;3.08;;
30543;SDS011;43388;46.308;4.600;2023-04-06T13:30:51;3.25;;;2.95;;
30543;SDS011;43388;46.308;4.600;2023-04-06T13:33:17;4.88;;;2.58;;
30543;SDS011;43388;46.308;4.600;2023-04-06T13:35:46;3.40;;;3.10;;
30543;SDS011;43388;46.308;4.600;2023-04-06T13:38:13;2.83;;;2.63;;
30543;SDS011;43388;46.308;4.600;2023-04-06T13:40:39;6.55;;;2.88;;
30543;SDS011;43388;46.308;4.600;2023-04-06T13:43:06;5.82;;;2.90;;
30543;SDS011;43388;46.308;4.600;2023-04-06T13:45:32;2.78;;;2.58;;
30543;SDS011;43388;46.308;4.600;2023-04-06T13:47:58;4.20;;;2.88;;
30543;SDS011;43388;46.308;4.600;2023-04-06T13:50:27;4.07;;;2.60;;
30543;SDS011;43388;46.308;4.600;2023-04-06T13:52:53;4.50;;;3.40;;
30543;SDS011;43388;46.308;4.600;2023-04-06T13:55:19;3.55;;;3.00;;
30543;SDS011;43388;46.308;4.600;2023-04-06T13:57:45;3.83;;;3.17;;
30543;SDS011;43388;46.308;4.600;2023-04-06T14:00:12;3.08;;;2.40;;
30543;SDS011;43388;46.308;4.600;2023-04-06T14:02:39;3.40;;;3.10;;
30543;SDS011;43388;46.308;4.600;2023-04-06T14:05:05;3.20;;;2.97;;
30543;SDS011;43388;46.308;4.600;2023-04-06T14:07:31;2.88;;;2.67;;
30543;SDS011;43388;46.308;4.600;2023-04-06T14:09:57;4.70;;;3.22;;
30543;SDS011;43388;46.308;4.600;2023-04-06T14:12:23;5.85;;;3.53;;
30543;SDS011;43388;46.308;4.600;2023-04-06T14:14:50;2.95;;;2.75;;
30543;SDS011;43388;46.308;4.600;2023-04-06T14:17:16;2.85;;;2.65;;
30543;SDS011;43388;46.308;4.600;2023-04-06T14:19:42;6.70;;;3.22;;
30543;SDS011;43388;46.308;4.600;2023-04-06T14:22:08;4.35;;;2.58;;
30543;SDS011;43388;46.308;4.600;2023-04-06T14:24:34;2.97;;;2.78;;
30543;SDS011;43388;46.308;4.600;2023-04-06T14:27:00;2.83;;;2.63;;
30543;SDS011;43388;46.308;4.600;2023-04-06T14:29:27;3.63;;;2.72;;
30543;SDS011;43388;46.308;4.600;2023-04-06T14:31:53;4.00;;;3.70;;
30543;SDS011;43388;46.308;4.600;2023-04-06T14:34:25;3.38;;;3.08;;
30543;SDS011;43388;46.308;4.600;2023-04-06T14:36:51;4.10;;;3.38;;
30543;SDS011;43388;46.308;4.600;2023-04-06T14:39:17;5.35;;;3.30;;
30543;SDS011;43388;46.308;4.600;2023-04-06T14:41:43;3.53;;;3.22;;
30543;SDS011;43388;46.308;4.600;2023-04-06T14:44:10;2.97;;;2.78;;
30543;SDS011;43388;46.308;4.600;2023-04-06T14:46:37;2.70;;;2.50;;
30543;SDS011;43388;46.308;4.600;2023-04-06T14:49:03;3.42;;;3.15;;
30543;SDS011;43388;46.308;4.600;2023-04-06T14:51:29;3.25;;;2.95;;